Harwood Heights, Illinois
Current Conditions -  °F | °C
As of 1:51 AM on Friday 28 Nov 2014 (Local Time) from KORD Reporting Station
Broken Clouds Broken Clouds  
Wind Chill: 19°   Ceiling: 10000
Heat Index: 19°   Visibility: 10mi
Dew Point: 11°   Wind: 0mph
Humidity: 71%   Direction: NA
Pressure: 30.37"   Gusts: NA
Location:  41.97°N, 87.81°W
Report Text: KORD 280751Z 00000KT 10SM BKN100 M07/M12 A3037 RMK AO2 SLP294 T10721117
Loading
Personal Weather Stations






























Interactive Weather Map New forecast layout! Learn more

10-Day Weather Forecast

Advertisements
Track Severe Weather on mobile